sensor_id;sensor_type;location;lat;lon;timestamp;P1;durP1;ratioP1;P2;durP2;ratioP2
68690;SDS011;55675;49.588;8.640;2022-10-16T00:00:42;2.57;;;2.30;;
68690;SDS011;55675;49.588;8.640;2022-10-16T00:03:08;4.30;;;2.20;;
68690;SDS011;55675;49.588;8.640;2022-10-16T00:05:41;2.60;;;2.17;;
68690;SDS011;55675;49.588;8.640;2022-10-16T00:08:08;2.43;;;2.23;;
68690;SDS011;55675;49.588;8.640;2022-10-16T00:10:34;2.27;;;2.10;;
68690;SDS011;55675;49.588;8.640;2022-10-16T00:13:00;4.03;;;2.13;;
68690;SDS011;55675;49.588;8.640;2022-10-16T00:15:26;2.50;;;2.13;;
68690;SDS011;55675;49.588;8.640;2022-10-16T00:17:52;5.93;;;2.83;;
68690;SDS011;55675;49.588;8.640;2022-10-16T00:20:17;4.33;;;2.40;;
68690;SDS011;55675;49.588;8.640;2022-10-16T00:22:43;3.37;;;2.40;;
68690;SDS011;55675;49.588;8.640;2022-10-16T00:25:08;2.90;;;2.70;;
68690;SDS011;55675;49.588;8.640;2022-10-16T00:27:34;2.47;;;2.27;;
68690;SDS011;55675;49.588;8.640;2022-10-16T00:29:59;3.73;;;2.53;;
68690;SDS011;55675;49.588;8.640;2022-10-16T00:32:25;4.33;;;2.90;;
68690;SDS011;55675;49.588;8.640;2022-10-16T00:34:50;4.27;;;2.60;;
68690;SDS011;55675;49.588;8.640;2022-10-16T00:37:16;5.07;;;2.77;;
68690;SDS011;55675;49.588;8.640;2022-10-16T00:39:41;3.20;;;2.50;;
68690;SDS011;55675;49.588;8.640;2022-10-16T00:42:09;2.80;;;2.60;;
68690;SDS011;55675;49.588;8.640;2022-10-16T00:44:41;3.27;;;2.80;;
68690;SDS011;55675;49.588;8.640;2022-10-16T00:47:11;3.30;;;2.70;;
68690;SDS011;55675;49.588;8.640;2022-10-16T00:49:42;3.43;;;2.93;;
68690;SDS011;55675;49.588;8.640;2022-10-16T00:52:08;3.23;;;2.93;;
68690;SDS011;55675;49.588;8.640;2022-10-16T00:54:35;3.43;;;2.83;;
68690;SDS011;55675;49.588;8.640;2022-10-16T00:57:01;2.77;;;2.57;;
68690;SDS011;55675;49.588;8.640;2022-10-16T00:59:31;3.53;;;2.53;;
68690;SDS011;55675;49.588;8.640;2022-10-16T01:02:01;4.00;;;3.03;;
68690;SDS011;55675;49.588;8.640;2022-10-16T01:04:27;4.97;;;2.60;;
68690;SDS011;55675;49.588;8.640;2022-10-16T01:07:06;3.30;;;2.80;;
68690;SDS011;55675;49.588;8.640;2022-10-16T01:12:34;2.47;;;2.20;;
68690;SDS011;55675;49.588;8.640;2022-10-16T01:15:17;3.83;;;2.13;;
68690;SDS011;55675;49.588;8.640;2022-10-16T01:20:38;3.93;;;1.90;;
68690;SDS011;55675;49.588;8.640;2022-10-16T01:23:27;3.33;;;2.30;;
68690;SDS011;55675;49.588;8.640;2022-10-16T01:26:13;2.93;;;2.00;;
68690;SDS011;55675;49.588;8.640;2022-10-16T01:29:21;2.40;;;1.80;;
68690;SDS011;55675;49.588;8.640;2022-10-16T01:31:57;3.77;;;1.97;;
68690;SDS011;55675;49.588;8.640;2022-10-16T01:34:42;5.17;;;1.90;;
68690;SDS011;55675;49.588;8.640;2022-10-16T01:37:22;2.30;;;2.10;;
68690;SDS011;55675;49.588;8.640;2022-10-16T01:40:11;3.10;;;1.70;;
68690;SDS011;55675;49.588;8.640;2022-10-16T01:42:40;3.37;;;1.80;;
68690;SDS011;55675;49.588;8.640;2022-10-16T01:45:11;2.47;;;1.67;;
68690;SDS011;55675;49.588;8.640;2022-10-16T01:47:39;2.50;;;1.90;;
68690;SDS011;55675;49.588;8.640;2022-10-16T01:50:06;3.87;;;1.90;;
68690;SDS011;55675;49.588;8.640;2022-10-16T01:52:37;2.63;;;1.80;;
68690;SDS011;55675;49.588;8.640;2022-10-16T01:55:06;1.90;;;1.70;;
68690;SDS011;55675;49.588;8.640;2022-10-16T01:57:34;2.63;;;1.97;;
68690;SDS011;55675;49.588;8.640;2022-10-16T02:00:05;3.27;;;2.00;;
68690;SDS011;55675;49.588;8.640;2022-10-16T02:02:35;2.97;;;1.80;;
68690;SDS011;55675;49.588;8.640;2022-10-16T02:05:03;1.97;;;1.77;;
68690;SDS011;55675;49.588;8.640;2022-10-16T02:07:31;3.93;;;1.63;;
68690;SDS011;55675;49.588;8.640;2022-10-16T02:09:57;1.80;;;1.70;;
68690;SDS011;55675;49.588;8.640;2022-10-16T02:12:30;2.80;;;1.80;;
68690;SDS011;55675;49.588;8.640;2022-10-16T02:14:59;2.10;;;1.90;;
68690;SDS011;55675;49.588;8.640;2022-10-16T02:17:24;2.10;;;1.90;;
68690;SDS011;55675;49.588;8.640;2022-10-16T02:19:51;3.87;;;1.60;;
68690;SDS011;55675;49.588;8.640;2022-10-16T02:25:08;2.00;;;1.80;;
68690;SDS011;55675;49.588;8.640;2022-10-16T02:32:52;4.03;;;1.80;;
68690;SDS011;55675;49.588;8.640;2022-10-16T02:35:20;2.40;;;2.17;;
68690;SDS011;55675;49.588;8.640;2022-10-16T02:37:47;1.60;;;1.50;;
68690;SDS011;55675;49.588;8.640;2022-10-16T02:40:15;3.63;;;1.67;;
68690;SDS011;55675;49.588;8.640;2022-10-16T02:42:41;2.80;;;1.60;;
68690;SDS011;55675;49.588;8.640;2022-10-16T02:45:08;2.30;;;1.67;;
68690;SDS011;55675;49.588;8.640;2022-10-16T02:47:35;1.77;;;1.57;;
68690;SDS011;55675;49.588;8.640;2022-10-16T02:50:00;1.57;;;1.47;;
68690;SDS011;55675;49.588;8.640;2022-10-16T02:52:26;1.40;;;1.30;;
68690;SDS011;55675;49.588;8.640;2022-10-16T02:54:51;1.57;;;1.47;;
68690;SDS011;55675;49.588;8.640;2022-10-16T02:57:17;5.00;;;1.90;;
68690;SDS011;55675;49.588;8.640;2022-10-16T02:59:43;3.20;;;1.53;;
68690;SDS011;55675;49.588;8.640;2022-10-16T03:02:09;1.70;;;1.60;;
68690;SDS011;55675;49.588;8.640;2022-10-16T03:04:35;2.80;;;1.73;;
68690;SDS011;55675;49.588;8.640;2022-10-16T03:07:01;2.33;;;1.80;;
68690;SDS011;55675;49.588;8.640;2022-10-16T03:09:27;1.67;;;1.57;;
68690;SDS011;55675;49.588;8.640;2022-10-16T03:11:52;1.70;;;1.60;;
68690;SDS011;55675;49.588;8.640;2022-10-16T03:14:18;1.90;;;1.80;;
68690;SDS011;55675;49.588;8.640;2022-10-16T03:16:43;3.30;;;1.70;;
68690;SDS011;55675;49.588;8.640;2022-10-16T03:19:09;2.03;;;1.83;;
68690;SDS011;55675;49.588;8.640;2022-10-16T03:21:34;1.77;;;1.60;;
68690;SDS011;55675;49.588;8.640;2022-10-16T03:24:00;3.33;;;1.77;;
68690;SDS011;55675;49.588;8.640;2022-10-16T03:26:26;1.90;;;1.60;;
68690;SDS011;55675;49.588;8.640;2022-10-16T03:28:51;1.60;;;1.50;;
68690;SDS011;55675;49.588;8.640;2022-10-16T03:31:17;2.00;;;1.60;;
68690;SDS011;55675;49.588;8.640;2022-10-16T03:33:42;3.73;;;1.73;;
68690;SDS011;55675;49.588;8.640;2022-10-16T03:36:08;2.47;;;1.63;;
68690;SDS011;55675;49.588;8.640;2022-10-16T03:38:33;3.63;;;1.70;;
68690;SDS011;55675;49.588;8.640;2022-10-16T03:40:59;1.60;;;1.50;;
68690;SDS011;55675;49.588;8.640;2022-10-16T03:43:24;1.70;;;1.60;;
68690;SDS011;55675;49.588;8.640;2022-10-16T03:45:50;2.20;;;1.53;;
68690;SDS011;55675;49.588;8.640;2022-10-16T03:48:16;1.50;;;1.40;;
68690;SDS011;55675;49.588;8.640;2022-10-16T03:50:42;1.73;;;1.60;;
68690;SDS011;55675;49.588;8.640;2022-10-16T03:53:08;2.53;;;2.00;;
68690;SDS011;55675;49.588;8.640;2022-10-16T03:55:34;1.63;;;1.47;;
68690;SDS011;55675;49.588;8.640;2022-10-16T03:58:00;2.87;;;1.60;;
68690;SDS011;55675;49.588;8.640;2022-10-16T04:00:25;3.27;;;1.77;;
68690;SDS011;55675;49.588;8.640;2022-10-16T04:02:51;2.67;;;1.87;;
68690;SDS011;55675;49.588;8.640;2022-10-16T04:05:17;2.53;;;1.70;;
68690;SDS011;55675;49.588;8.640;2022-10-16T04:07:42;1.97;;;1.70;;
68690;SDS011;55675;49.588;8.640;2022-10-16T04:10:08;4.30;;;1.77;;
68690;SDS011;55675;49.588;8.640;2022-10-16T04:12:34;2.07;;;1.77;;
68690;SDS011;55675;49.588;8.640;2022-10-16T04:14:59;2.33;;;1.60;;
68690;SDS011;55675;49.588;8.640;2022-10-16T04:17:25;3.93;;;1.80;;
68690;SDS011;55675;49.588;8.640;2022-10-16T04:19:50;3.00;;;2.00;;
68690;SDS011;55675;49.588;8.640;2022-10-16T04:22:16;1.77;;;1.67;;
68690;SDS011;55675;49.588;8.640;2022-10-16T04:24:41;3.47;;;1.60;;
68690;SDS011;55675;49.588;8.640;2022-10-16T04:27:07;2.87;;;1.70;;
68690;SDS011;55675;49.588;8.640;2022-10-16T04:29:32;3.70;;;1.90;;
68690;SDS011;55675;49.588;8.640;2022-10-16T04:31:58;3.50;;;2.10;;
68690;SDS011;55675;49.588;8.640;2022-10-16T04:34:24;2.23;;;1.90;;
68690;SDS011;55675;49.588;8.640;2022-10-16T04:36:49;3.80;;;1.70;;
68690;SDS011;55675;49.588;8.640;2022-10-16T04:39:15;2.23;;;1.80;;
68690;SDS011;55675;49.588;8.640;2022-10-16T04:41:41;2.13;;;1.80;;
68690;SDS011;55675;49.588;8.640;2022-10-16T04:44:06;2.10;;;2.00;;
68690;SDS011;55675;49.588;8.640;2022-10-16T04:46:32;2.80;;;1.80;;
68690;SDS011;55675;49.588;8.640;2022-10-16T04:48:57;2.00;;;1.80;;
68690;SDS011;55675;49.588;8.640;2022-10-16T04:51:23;1.83;;;1.73;;
68690;SDS011;55675;49.588;8.640;2022-10-16T04:53:50;2.93;;;1.70;;
68690;SDS011;55675;49.588;8.640;2022-10-16T04:56:16;4.83;;;1.70;;
68690;SDS011;55675;49.588;8.640;2022-10-16T04:58:41;2.90;;;1.70;;
68690;SDS011;55675;49.588;8.640;2022-10-16T05:01:07;2.53;;;1.63;;
68690;SDS011;55675;49.588;8.640;2022-10-16T05:03:32;2.13;;;1.57;;
68690;SDS011;55675;49.588;8.640;2022-10-16T05:05:58;1.77;;;1.40;;
68690;SDS011;55675;49.588;8.640;2022-10-16T05:08:23;4.63;;;1.80;;
68690;SDS011;55675;49.588;8.640;2022-10-16T05:10:49;2.37;;;1.90;;
68690;SDS011;55675;49.588;8.640;2022-10-16T05:13:14;1.77;;;1.67;;
68690;SDS011;55675;49.588;8.640;2022-10-16T05:15:40;2.07;;;1.63;;
68690;SDS011;55675;49.588;8.640;2022-10-16T05:18:05;2.07;;;1.80;;
68690;SDS011;55675;49.588;8.640;2022-10-16T05:20:31;3.43;;;1.60;;
68690;SDS011;55675;49.588;8.640;2022-10-16T05:22:56;2.80;;;1.63;;
68690;SDS011;55675;49.588;8.640;2022-10-16T05:25:22;3.90;;;1.70;;
68690;SDS011;55675;49.588;8.640;2022-10-16T05:27:48;3.53;;;1.70;;
68690;SDS011;55675;49.588;8.640;2022-10-16T05:30:14;3.37;;;1.63;;
68690;SDS011;55675;49.588;8.640;2022-10-16T05:32:40;2.37;;;1.73;;
68690;SDS011;55675;49.588;8.640;2022-10-16T05:35:06;3.80;;;3.00;;
68690;SDS011;55675;49.588;8.640;2022-10-16T05:37:32;2.10;;;1.90;;
68690;SDS011;55675;49.588;8.640;2022-10-16T05:39:57;2.93;;;1.50;;
68690;SDS011;55675;49.588;8.640;2022-10-16T05:42:23;1.80;;;1.70;;
68690;SDS011;55675;49.588;8.640;2022-10-16T05:44:48;3.70;;;1.60;;
68690;SDS011;55675;49.588;8.640;2022-10-16T05:47:14;1.47;;;1.37;;
68690;SDS011;55675;49.588;8.640;2022-10-16T05:49:40;2.00;;;1.50;;
68690;SDS011;55675;49.588;8.640;2022-10-16T05:52:05;1.40;;;1.30;;
68690;SDS011;55675;49.588;8.640;2022-10-16T05:54:31;1.60;;;1.50;;
68690;SDS011;55675;49.588;8.640;2022-10-16T05:56:57;3.17;;;1.57;;
68690;SDS011;55675;49.588;8.640;2022-10-16T05:59:22;2.67;;;1.40;;
68690;SDS011;55675;49.588;8.640;2022-10-16T06:01:48;1.50;;;1.40;;
68690;SDS011;55675;49.588;8.640;2022-10-16T06:04:14;1.47;;;1.23;;
68690;SDS011;55675;49.588;8.640;2022-10-16T06:06:39;1.60;;;1.50;;
68690;SDS011;55675;49.588;8.640;2022-10-16T06:09:05;2.20;;;1.50;;
68690;SDS011;55675;49.588;8.640;2022-10-16T06:13:58;2.57;;;1.60;;
68690;SDS011;55675;49.588;8.640;2022-10-16T06:16:27;2.00;;;1.60;;
68690;SDS011;55675;49.588;8.640;2022-10-16T06:18:54;3.00;;;1.57;;
68690;SDS011;55675;49.588;8.640;2022-10-16T06:21:21;4.13;;;1.70;;
68690;SDS011;55675;49.588;8.640;2022-10-16T06:23:52;2.07;;;1.33;;
68690;SDS011;55675;49.588;8.640;2022-10-16T06:26:18;1.50;;;1.40;;
68690;SDS011;55675;49.588;8.640;2022-10-16T06:28:46;1.83;;;1.40;;
68690;SDS011;55675;49.588;8.640;2022-10-16T06:31:12;1.73;;;1.60;;
68690;SDS011;55675;49.588;8.640;2022-10-16T06:33:38;5.30;;;3.43;;
68690;SDS011;55675;49.588;8.640;2022-10-16T06:36:05;15.60;;;9.80;;
68690;SDS011;55675;49.588;8.640;2022-10-16T06:38:32;5.70;;;4.80;;
68690;SDS011;55675;49.588;8.640;2022-10-16T06:40:58;4.53;;;3.00;;
68690;SDS011;55675;49.588;8.640;2022-10-16T06:43:23;5.40;;;3.27;;
68690;SDS011;55675;49.588;8.640;2022-10-16T06:45:56;6.07;;;3.30;;
68690;SDS011;55675;49.588;8.640;2022-10-16T06:48:22;5.03;;;3.13;;
68690;SDS011;55675;49.588;8.640;2022-10-16T06:51:02;3.30;;;2.33;;
68690;SDS011;55675;49.588;8.640;2022-10-16T06:53:34;2.93;;;2.00;;
68690;SDS011;55675;49.588;8.640;2022-10-16T06:56:12;3.00;;;2.20;;
68690;SDS011;55675;49.588;8.640;2022-10-16T06:58:39;1.70;;;1.60;;
68690;SDS011;55675;49.588;8.640;2022-10-16T07:01:05;3.53;;;1.70;;
68690;SDS011;55675;49.588;8.640;2022-10-16T07:03:31;1.57;;;1.47;;
68690;SDS011;55675;49.588;8.640;2022-10-16T07:05:57;1.83;;;1.73;;
68690;SDS011;55675;49.588;8.640;2022-10-16T07:08:27;2.00;;;1.80;;
68690;SDS011;55675;49.588;8.640;2022-10-16T07:11:02;5.77;;;2.27;;
68690;SDS011;55675;49.588;8.640;2022-10-16T07:13:29;2.47;;;1.87;;
68690;SDS011;55675;49.588;8.640;2022-10-16T07:15:58;3.20;;;2.10;;
68690;SDS011;55675;49.588;8.640;2022-10-16T07:18:33;2.20;;;2.00;;
68690;SDS011;55675;49.588;8.640;2022-10-16T07:21:05;2.27;;;2.03;;
68690;SDS011;55675;49.588;8.640;2022-10-16T07:23:35;3.07;;;1.70;;
68690;SDS011;55675;49.588;8.640;2022-10-16T07:26:01;2.67;;;2.10;;
68690;SDS011;55675;49.588;8.640;2022-10-16T07:28:26;3.77;;;1.80;;
68690;SDS011;55675;49.588;8.640;2022-10-16T07:30:53;2.20;;;2.00;;
68690;SDS011;55675;49.588;8.640;2022-10-16T07:33:18;1.73;;;1.63;;
68690;SDS011;55675;49.588;8.640;2022-10-16T07:35:48;2.27;;;1.63;;
68690;SDS011;55675;49.588;8.640;2022-10-16T07:38:15;1.57;;;1.47;;
68690;SDS011;55675;49.588;8.640;2022-10-16T07:40:41;2.20;;;1.57;;
68690;SDS011;55675;49.588;8.640;2022-10-16T07:43:06;2.10;;;1.60;;
68690;SDS011;55675;49.588;8.640;2022-10-16T07:45:32;1.83;;;1.50;;
68690;SDS011;55675;49.588;8.640;2022-10-16T07:47:57;2.00;;;1.60;;
68690;SDS011;55675;49.588;8.640;2022-10-16T07:50:23;4.80;;;3.83;;
68690;SDS011;55675;49.588;8.640;2022-10-16T07:52:48;2.27;;;2.10;;
68690;SDS011;55675;49.588;8.640;2022-10-16T07:55:14;1.60;;;1.50;;
68690;SDS011;55675;49.588;8.640;2022-10-16T07:57:39;1.57;;;1.47;;
68690;SDS011;55675;49.588;8.640;2022-10-16T08:00:05;2.37;;;1.50;;
68690;SDS011;55675;49.588;8.640;2022-10-16T08:02:31;1.37;;;1.20;;
68690;SDS011;55675;49.588;8.640;2022-10-16T08:04:57;2.67;;;1.47;;
68690;SDS011;55675;49.588;8.640;2022-10-16T08:07:22;2.07;;;1.40;;
68690;SDS011;55675;49.588;8.640;2022-10-16T08:09:51;3.90;;;1.27;;
68690;SDS011;55675;49.588;8.640;2022-10-16T08:12:17;1.50;;;1.40;;
68690;SDS011;55675;49.588;8.640;2022-10-16T08:14:43;1.50;;;1.40;;
68690;SDS011;55675;49.588;8.640;2022-10-16T08:17:08;1.53;;;1.27;;
68690;SDS011;55675;49.588;8.640;2022-10-16T08:19:34;1.47;;;1.20;;
68690;SDS011;55675;49.588;8.640;2022-10-16T08:21:59;1.70;;;1.50;;
68690;SDS011;55675;49.588;8.640;2022-10-16T08:24:26;2.00;;;1.63;;
68690;SDS011;55675;49.588;8.640;2022-10-16T08:26:53;2.83;;;1.50;;
68690;SDS011;55675;49.588;8.640;2022-10-16T08:29:19;1.67;;;1.47;;
68690;SDS011;55675;49.588;8.640;2022-10-16T08:31:45;4.90;;;1.57;;
68690;SDS011;55675;49.588;8.640;2022-10-16T08:34:10;2.43;;;1.53;;
68690;SDS011;55675;49.588;8.640;2022-10-16T08:36:36;3.93;;;1.60;;
68690;SDS011;55675;49.588;8.640;2022-10-16T08:39:01;3.33;;;1.67;;
68690;SDS011;55675;49.588;8.640;2022-10-16T08:41:31;2.87;;;1.67;;
68690;SDS011;55675;49.588;8.640;2022-10-16T08:47:43;3.70;;;1.60;;
68690;SDS011;55675;49.588;8.640;2022-10-16T08:50:31;2.73;;;2.00;;
68690;SDS011;55675;49.588;8.640;2022-10-16T08:53:00;3.87;;;2.07;;
68690;SDS011;55675;49.588;8.640;2022-10-16T08:55:41;3.50;;;2.03;;
68690;SDS011;55675;49.588;8.640;2022-10-16T08:58:15;4.27;;;2.70;;
68690;SDS011;55675;49.588;8.640;2022-10-16T09:00:43;5.33;;;3.17;;
68690;SDS011;55675;49.588;8.640;2022-10-16T09:03:29;5.50;;;3.30;;
68690;SDS011;55675;49.588;8.640;2022-10-16T09:09:04;3.07;;;2.27;;
68690;SDS011;55675;49.588;8.640;2022-10-16T09:11:58;2.97;;;2.30;;
68690;SDS011;55675;49.588;8.640;2022-10-16T09:14:54;3.23;;;1.87;;
68690;SDS011;55675;49.588;8.640;2022-10-16T09:17:37;2.63;;;1.93;;
68690;SDS011;55675;49.588;8.640;2022-10-16T09:22:45;1.77;;;1.50;;
68690;SDS011;55675;49.588;8.640;2022-10-16T09:25:12;1.60;;;1.50;;
68690;SDS011;55675;49.588;8.640;2022-10-16T09:27:40;1.50;;;1.30;;
68690;SDS011;55675;49.588;8.640;2022-10-16T09:30:15;1.40;;;1.30;;
68690;SDS011;55675;49.588;8.640;2022-10-16T09:32:43;2.17;;;1.60;;
68690;SDS011;55675;49.588;8.640;2022-10-16T09:35:56;3.23;;;1.50;;
68690;SDS011;55675;49.588;8.640;2022-10-16T09:38:05;3.23;;;1.87;;
68690;SDS011;55675;49.588;8.640;2022-10-16T09:40:32;3.10;;;2.17;;
68690;SDS011;55675;49.588;8.640;2022-10-16T09:45:55;2.83;;;1.90;;
68690;SDS011;55675;49.588;8.640;2022-10-16T09:48:27;2.40;;;1.40;;
68690;SDS011;55675;49.588;8.640;2022-10-16T09:50:57;2.27;;;1.50;;
68690;SDS011;55675;49.588;8.640;2022-10-16T09:53:41;2.60;;;1.50;;
68690;SDS011;55675;49.588;8.640;2022-10-16T09:56:11;2.07;;;1.20;;
68690;SDS011;55675;49.588;8.640;2022-10-16T09:58:52;2.53;;;1.30;;
68690;SDS011;55675;49.588;8.640;2022-10-16T10:01:20;1.60;;;1.40;;
68690;SDS011;55675;49.588;8.640;2022-10-16T10:03:47;1.30;;;1.00;;
68690;SDS011;55675;49.588;8.640;2022-10-16T10:06:25;2.00;;;1.30;;
68690;SDS011;55675;49.588;8.640;2022-10-16T10:11:37;0.90;;;0.90;;
68690;SDS011;55675;49.588;8.640;2022-10-16T10:14:06;1.10;;;1.10;;
68690;SDS011;55675;49.588;8.640;2022-10-16T10:16:40;1.40;;;1.30;;
68690;SDS011;55675;49.588;8.640;2022-10-16T10:19:09;1.30;;;1.20;;
68690;SDS011;55675;49.588;8.640;2022-10-16T10:21:48;1.10;;;1.10;;
68690;SDS011;55675;49.588;8.640;2022-10-16T10:24:18;1.70;;;1.10;;
68690;SDS011;55675;49.588;8.640;2022-10-16T10:26:47;1.20;;;1.10;;
68690;SDS011;55675;49.588;8.640;2022-10-16T10:29:26;2.87;;;1.23;;
68690;SDS011;55675;49.588;8.640;2022-10-16T10:39:55;1.97;;;1.60;;
68690;SDS011;55675;49.588;8.640;2022-10-16T10:43:10;3.13;;;1.40;;
68690;SDS011;55675;49.588;8.640;2022-10-16T10:45:47;1.70;;;1.50;;
68690;SDS011;55675;49.588;8.640;2022-10-16T10:51:31;2.90;;;1.63;;
68690;SDS011;55675;49.588;8.640;2022-10-16T10:54:13;1.57;;;1.40;;
68690;SDS011;55675;49.588;8.640;2022-10-16T10:57:02;3.70;;;1.70;;
68690;SDS011;55675;49.588;8.640;2022-10-16T11:02:15;3.17;;;1.67;;
68690;SDS011;55675;49.588;8.640;2022-10-16T11:04:47;2.87;;;1.50;;
68690;SDS011;55675;49.588;8.640;2022-10-16T11:07:37;1.37;;;1.37;;
68690;SDS011;55675;49.588;8.640;2022-10-16T11:10:12;2.07;;;1.73;;
68690;SDS011;55675;49.588;8.640;2022-10-16T11:12:46;1.73;;;1.50;;
68690;SDS011;55675;49.588;8.640;2022-10-16T11:15:25;3.20;;;1.60;;
68690;SDS011;55675;49.588;8.640;2022-10-16T11:17:57;2.80;;;1.60;;
68690;SDS011;55675;49.588;8.640;2022-10-16T11:20:47;2.30;;;1.40;;
68690;SDS011;55675;49.588;8.640;2022-10-16T11:23:19;3.20;;;1.50;;
68690;SDS011;55675;49.588;8.640;2022-10-16T11:25:46;1.73;;;1.40;;
68690;SDS011;55675;49.588;8.640;2022-10-16T11:28:20;1.43;;;1.33;;
68690;SDS011;55675;49.588;8.640;2022-10-16T11:31:08;2.60;;;1.83;;
68690;SDS011;55675;49.588;8.640;2022-10-16T11:33:46;4.90;;;1.60;;
68690;SDS011;55675;49.588;8.640;2022-10-16T11:36:39;1.90;;;1.20;;
68690;SDS011;55675;49.588;8.640;2022-10-16T11:39:24;1.43;;;1.33;;
68690;SDS011;55675;49.588;8.640;2022-10-16T11:47:02;2.90;;;1.50;;
68690;SDS011;55675;49.588;8.640;2022-10-16T11:49:37;1.17;;;1.17;;
68690;SDS011;55675;49.588;8.640;2022-10-16T11:52:11;1.43;;;1.33;;
68690;SDS011;55675;49.588;8.640;2022-10-16T11:57:29;1.33;;;1.33;;
68690;SDS011;55675;49.588;8.640;2022-10-16T12:00:00;1.70;;;1.50;;
68690;SDS011;55675;49.588;8.640;2022-10-16T12:02:33;2.47;;;1.67;;
68690;SDS011;55675;49.588;8.640;2022-10-16T12:05:18;3.40;;;1.53;;
68690;SDS011;55675;49.588;8.640;2022-10-16T12:07:51;1.83;;;1.50;;
68690;SDS011;55675;49.588;8.640;2022-10-16T12:10:38;2.20;;;1.47;;
68690;SDS011;55675;49.588;8.640;2022-10-16T12:16:05;1.50;;;1.40;;
68690;SDS011;55675;49.588;8.640;2022-10-16T12:18:32;2.23;;;1.67;;
68690;SDS011;55675;49.588;8.640;2022-10-16T12:20:58;2.10;;;1.40;;
68690;SDS011;55675;49.588;8.640;2022-10-16T12:23:29;1.50;;;1.40;;
68690;SDS011;55675;49.588;8.640;2022-10-16T12:25:56;2.20;;;1.73;;
68690;SDS011;55675;49.588;8.640;2022-10-16T12:28:27;2.53;;;1.50;;
68690;SDS011;55675;49.588;8.640;2022-10-16T12:30:58;1.50;;;1.40;;
68690;SDS011;55675;49.588;8.640;2022-10-16T12:33:30;1.70;;;1.60;;
68690;SDS011;55675;49.588;8.640;2022-10-16T12:35:59;1.83;;;1.43;;
68690;SDS011;55675;49.588;8.640;2022-10-16T12:38:36;5.20;;;1.70;;
68690;SDS011;55675;49.588;8.640;2022-10-16T12:41:32;2.73;;;2.10;;
68690;SDS011;55675;49.588;8.640;2022-10-16T12:44:00;1.50;;;1.40;;
68690;SDS011;55675;49.588;8.640;2022-10-16T12:49:05;1.60;;;1.50;;
68690;SDS011;55675;49.588;8.640;2022-10-16T12:51:37;2.13;;;1.60;;
68690;SDS011;55675;49.588;8.640;2022-10-16T12:54:12;2.37;;;1.77;;
68690;SDS011;55675;49.588;8.640;2022-10-16T12:56:51;2.63;;;1.40;;
68690;SDS011;55675;49.588;8.640;2022-10-16T12:59:41;2.30;;;1.50;;
68690;SDS011;55675;49.588;8.640;2022-10-16T13:15:39;4.17;;;1.50;;
68690;SDS011;55675;49.588;8.640;2022-10-16T13:18:16;1.80;;;1.50;;
68690;SDS011;55675;49.588;8.640;2022-10-16T13:21:03;2.30;;;1.90;;
68690;SDS011;55675;49.588;8.640;2022-10-16T13:27:01;4.10;;;1.43;;
68690;SDS011;55675;49.588;8.640;2022-10-16T13:29:40;3.77;;;2.00;;
68690;SDS011;55675;49.588;8.640;2022-10-16T13:32:07;2.93;;;1.77;;
68690;SDS011;55675;49.588;8.640;2022-10-16T13:34:47;1.87;;;1.70;;
68690;SDS011;55675;49.588;8.640;2022-10-16T13:37:24;4.20;;;1.90;;
68690;SDS011;55675;49.588;8.640;2022-10-16T13:39:50;1.90;;;1.73;;
68690;SDS011;55675;49.588;8.640;2022-10-16T13:42:26;2.50;;;1.60;;
68690;SDS011;55675;49.588;8.640;2022-10-16T13:44:53;3.20;;;1.70;;
68690;SDS011;55675;49.588;8.640;2022-10-16T13:47:22;2.50;;;1.67;;
68690;SDS011;55675;49.588;8.640;2022-10-16T13:49:59;2.80;;;1.70;;
68690;SDS011;55675;49.588;8.640;2022-10-16T13:52:36;2.13;;;1.70;;
68690;SDS011;55675;49.588;8.640;2022-10-16T13:55:03;1.90;;;1.80;;
68690;SDS011;55675;49.588;8.640;2022-10-16T13:57:35;1.77;;;1.67;;
68690;SDS011;55675;49.588;8.640;2022-10-16T14:00:00;2.40;;;1.87;;
68690;SDS011;55675;49.588;8.640;2022-10-16T14:02:27;2.60;;;1.80;;
68690;SDS011;55675;49.588;8.640;2022-10-16T14:05:03;2.00;;;1.60;;
68690;SDS011;55675;49.588;8.640;2022-10-16T14:07:32;1.80;;;1.57;;
68690;SDS011;55675;49.588;8.640;2022-10-16T14:10:00;2.93;;;1.70;;
68690;SDS011;55675;49.588;8.640;2022-10-16T14:12:28;2.90;;;1.70;;
68690;SDS011;55675;49.588;8.640;2022-10-16T14:14:54;3.93;;;1.80;;
68690;SDS011;55675;49.588;8.640;2022-10-16T14:17:22;2.97;;;1.90;;
68690;SDS011;55675;49.588;8.640;2022-10-16T14:19:51;2.33;;;1.90;;
68690;SDS011;55675;49.588;8.640;2022-10-16T14:22:23;2.10;;;2.00;;
68690;SDS011;55675;49.588;8.640;2022-10-16T14:24:55;1.87;;;1.70;;
68690;SDS011;55675;49.588;8.640;2022-10-16T14:27:31;2.77;;;1.93;;
68690;SDS011;55675;49.588;8.640;2022-10-16T14:30:08;4.50;;;1.77;;
68690;SDS011;55675;49.588;8.640;2022-10-16T14:32:42;2.30;;;2.10;;
68690;SDS011;55675;49.588;8.640;2022-10-16T14:35:23;2.70;;;1.90;;
68690;SDS011;55675;49.588;8.640;2022-10-16T14:37:54;2.47;;;1.83;;
68690;SDS011;55675;49.588;8.640;2022-10-16T14:40:23;1.90;;;1.80;;
68690;SDS011;55675;49.588;8.640;2022-10-16T14:42:50;2.00;;;1.80;;
68690;SDS011;55675;49.588;8.640;2022-10-16T14:45:20;2.03;;;1.80;;
68690;SDS011;55675;49.588;8.640;2022-10-16T14:47:52;1.90;;;1.80;;
68690;SDS011;55675;49.588;8.640;2022-10-16T14:50:20;2.87;;;1.80;;
68690;SDS011;55675;49.588;8.640;2022-10-16T14:52:47;2.93;;;1.80;;
68690;SDS011;55675;49.588;8.640;2022-10-16T14:55:12;2.07;;;1.87;;
68690;SDS011;55675;49.588;8.640;2022-10-16T14:57:38;2.47;;;1.70;;
68690;SDS011;55675;49.588;8.640;2022-10-16T15:00:23;2.37;;;1.70;;
68690;SDS011;55675;49.588;8.640;2022-10-16T15:02:50;3.43;;;1.80;;
68690;SDS011;55675;49.588;8.640;2022-10-16T15:05:20;2.27;;;1.90;;
68690;SDS011;55675;49.588;8.640;2022-10-16T15:07:48;2.30;;;1.70;;
68690;SDS011;55675;49.588;8.640;2022-10-16T15:10:14;2.03;;;1.60;;
68690;SDS011;55675;49.588;8.640;2022-10-16T15:12:43;2.87;;;1.73;;
68690;SDS011;55675;49.588;8.640;2022-10-16T15:15:21;3.07;;;1.63;;
68690;SDS011;55675;49.588;8.640;2022-10-16T15:17:49;3.50;;;1.80;;
68690;SDS011;55675;49.588;8.640;2022-10-16T15:20:18;1.90;;;1.73;;
68690;SDS011;55675;49.588;8.640;2022-10-16T15:22:44;2.60;;;1.50;;
68690;SDS011;55675;49.588;8.640;2022-10-16T15:27:56;2.07;;;1.47;;
68690;SDS011;55675;49.588;8.640;2022-10-16T15:30:21;2.40;;;1.40;;
68690;SDS011;55675;49.588;8.640;2022-10-16T15:32:47;2.60;;;1.60;;
68690;SDS011;55675;49.588;8.640;2022-10-16T15:35:13;3.93;;;1.57;;
68690;SDS011;55675;49.588;8.640;2022-10-16T15:37:38;1.83;;;1.67;;
68690;SDS011;55675;49.588;8.640;2022-10-16T15:40:04;2.03;;;1.83;;
68690;SDS011;55675;49.588;8.640;2022-10-16T15:42:30;2.93;;;1.53;;
68690;SDS011;55675;49.588;8.640;2022-10-16T15:44:56;3.73;;;1.73;;
68690;SDS011;55675;49.588;8.640;2022-10-16T15:47:21;2.47;;;1.87;;
68690;SDS011;55675;49.588;8.640;2022-10-16T15:49:47;3.97;;;1.80;;
68690;SDS011;55675;49.588;8.640;2022-10-16T15:52:12;1.67;;;1.53;;
68690;SDS011;55675;49.588;8.640;2022-10-16T15:54:38;4.10;;;1.80;;
68690;SDS011;55675;49.588;8.640;2022-10-16T15:57:03;4.00;;;1.57;;
68690;SDS011;55675;49.588;8.640;2022-10-16T15:59:29;2.60;;;1.77;;
68690;SDS011;55675;49.588;8.640;2022-10-16T16:01:55;3.30;;;1.83;;
68690;SDS011;55675;49.588;8.640;2022-10-16T16:04:20;3.20;;;1.50;;
68690;SDS011;55675;49.588;8.640;2022-10-16T16:06:46;2.23;;;1.90;;
68690;SDS011;55675;49.588;8.640;2022-10-16T16:09:12;3.20;;;1.90;;
68690;SDS011;55675;49.588;8.640;2022-10-16T16:11:39;1.93;;;1.60;;
68690;SDS011;55675;49.588;8.640;2022-10-16T16:14:05;2.70;;;2.00;;
68690;SDS011;55675;49.588;8.640;2022-10-16T16:16:31;3.67;;;2.00;;
68690;SDS011;55675;49.588;8.640;2022-10-16T16:19:02;3.63;;;2.10;;
68690;SDS011;55675;49.588;8.640;2022-10-16T16:21:28;2.97;;;2.00;;